sensor_id;sensor_type;location;lat;lon;timestamp;temperature;humidity
54461;DHT22;69977;49.414;11.010;2024-03-08T00:00:17;-0.50;99.90
54461;DHT22;69977;49.414;11.010;2024-03-08T00:02:47;-0.40;99.90
54461;DHT22;69977;49.414;11.010;2024-03-08T00:05:14;-0.40;99.90
54461;DHT22;69977;49.414;11.010;2024-03-08T00:07:41;-0.40;99.90
54461;DHT22;69977;49.414;11.010;2024-03-08T00:10:09;-0.40;99.90
54461;DHT22;69977;49.414;11.010;2024-03-08T00:12:41;-0.40;99.90
54461;DHT22;69977;49.414;11.010;2024-03-08T00:15:17;-0.50;99.90
54461;DHT22;69977;49.414;11.010;2024-03-08T00:17:43;-0.60;99.90
54461;DHT22;69977;49.414;11.010;2024-03-08T00:20:10;-0.60;99.90
54461;DHT22;69977;49.414;11.010;2024-03-08T00:22:39;-0.60;99.90
54461;DHT22;69977;49.414;11.010;2024-03-08T00:25:06;-0.70;99.90
54461;DHT22;69977;49.414;11.010;2024-03-08T00:27:35;-0.70;99.90
54461;DHT22;69977;49.414;11.010;2024-03-08T00:30:01;-0.80;99.90
54461;DHT22;69977;49.414;11.010;2024-03-08T00:32:27;-0.80;99.90
54461;DHT22;69977;49.414;11.010;2024-03-08T00:34:54;-0.70;99.90
54461;DHT22;69977;49.414;11.010;2024-03-08T00:37:23;-0.70;99.90
54461;DHT22;69977;49.414;11.010;2024-03-08T00:39:50;-0.90;99.90
54461;DHT22;69977;49.414;11.010;2024-03-08T00:42:16;-0.70;99.90
54461;DHT22;69977;49.414;11.010;2024-03-08T00:44:42;-0.70;99.90
54461;DHT22;69977;49.414;11.010;2024-03-08T00:47:08;-0.80;99.90
54461;DHT22;69977;49.414;11.010;2024-03-08T00:49:35;-0.80;99.90
54461;DHT22;69977;49.414;11.010;2024-03-08T00:52:02;-0.80;99.90
54461;DHT22;69977;49.414;11.010;2024-03-08T00:54:28;-1.00;99.90
54461;DHT22;69977;49.414;11.010;2024-03-08T00:56:56;-0.90;99.90
54461;DHT22;69977;49.414;11.010;2024-03-08T00:59:21;-0.90;99.90
54461;DHT22;69977;49.414;11.010;2024-03-08T01:01:47;-0.90;99.90
54461;DHT22;69977;49.414;11.010;2024-03-08T01:04:13;-0.90;99.90
54461;DHT22;69977;49.414;11.010;2024-03-08T01:06:39;-1.00;99.90
54461;DHT22;69977;49.414;11.010;2024-03-08T01:09:05;-1.00;99.90
54461;DHT22;69977;49.414;11.010;2024-03-08T01:11:33;-1.00;99.90
54461;DHT22;69977;49.414;11.010;2024-03-08T01:13:59;-1.00;99.90
54461;DHT22;69977;49.414;11.010;2024-03-08T01:16:25;-1.00;99.90
54461;DHT22;69977;49.414;11.010;2024-03-08T01:18:51;-1.10;99.90
54461;DHT22;69977;49.414;11.010;2024-03-08T01:21:17;-1.30;99.90
54461;DHT22;69977;49.414;11.010;2024-03-08T01:23:43;-1.30;99.90
54461;DHT22;69977;49.414;11.010;2024-03-08T01:26:09;-1.40;99.90
54461;DHT22;69977;49.414;11.010;2024-03-08T01:28:35;-1.30;99.90
54461;DHT22;69977;49.414;11.010;2024-03-08T01:31:01;-1.30;99.90
54461;DHT22;69977;49.414;11.010;2024-03-08T01:33:29;-1.30;99.90
54461;DHT22;69977;49.414;11.010;2024-03-08T01:35:58;-1.30;99.90
54461;DHT22;69977;49.414;11.010;2024-03-08T01:38:24;-1.30;99.90
54461;DHT22;69977;49.414;11.010;2024-03-08T01:40:50;-1.30;99.90
54461;DHT22;69977;49.414;11.010;2024-03-08T01:43:26;-1.30;99.90
54461;DHT22;69977;49.414;11.010;2024-03-08T01:45:57;-1.30;99.90
54461;DHT22;69977;49.414;11.010;2024-03-08T01:48:27;-1.30;99.90
54461;DHT22;69977;49.414;11.010;2024-03-08T01:50:58;-1.30;99.90
54461;DHT22;69977;49.414;11.010;2024-03-08T01:53:24;-1.40;99.90
54461;DHT22;69977;49.414;11.010;2024-03-08T01:55:56;-1.40;99.90
54461;DHT22;69977;49.414;11.010;2024-03-08T01:58:23;-1.50;99.90
54461;DHT22;69977;49.414;11.010;2024-03-08T02:00:50;-1.50;99.90
54461;DHT22;69977;49.414;11.010;2024-03-08T02:03:16;-1.50;99.90
54461;DHT22;69977;49.414;11.010;2024-03-08T02:05:43;-1.50;99.90
54461;DHT22;69977;49.414;11.010;2024-03-08T02:08:12;-1.50;99.90
54461;DHT22;69977;49.414;11.010;2024-03-08T02:10:46;-1.50;99.90
54461;DHT22;69977;49.414;11.010;2024-03-08T02:13:12;-1.50;99.90
54461;DHT22;69977;49.414;11.010;2024-03-08T02:15:53;-1.60;99.90
54461;DHT22;69977;49.414;11.010;2024-03-08T02:18:20;-1.70;99.90
54461;DHT22;69977;49.414;11.010;2024-03-08T02:21:06;-1.70;99.90
54461;DHT22;69977;49.414;11.010;2024-03-08T02:23:33;-1.70;99.90
54461;DHT22;69977;49.414;11.010;2024-03-08T02:26:00;-1.60;99.90
54461;DHT22;69977;49.414;11.010;2024-03-08T02:28:26;-1.60;99.90
54461;DHT22;69977;49.414;11.010;2024-03-08T02:30:52;-1.50;99.90
54461;DHT22;69977;49.414;11.010;2024-03-08T02:33:22;-1.60;99.90
54461;DHT22;69977;49.414;11.010;2024-03-08T02:35:49;-1.70;99.90
54461;DHT22;69977;49.414;11.010;2024-03-08T02:38:20;-1.60;99.90
54461;DHT22;69977;49.414;11.010;2024-03-08T02:40:49;-1.60;99.90
54461;DHT22;69977;49.414;11.010;2024-03-08T02:43:16;-1.70;99.90
54461;DHT22;69977;49.414;11.010;2024-03-08T02:45:44;-1.80;99.90
54461;DHT22;69977;49.414;11.010;2024-03-08T02:48:11;-1.80;99.90
54461;DHT22;69977;49.414;11.010;2024-03-08T02:50:37;-2.00;99.90
54461;DHT22;69977;49.414;11.010;2024-03-08T02:53:05;-1.80;99.90
54461;DHT22;69977;49.414;11.010;2024-03-08T02:55:32;-1.80;99.90
54461;DHT22;69977;49.414;11.010;2024-03-08T02:58:02;-1.80;99.90
54461;DHT22;69977;49.414;11.010;2024-03-08T03:00:30;-1.70;99.90
54461;DHT22;69977;49.414;11.010;2024-03-08T03:02:57;-1.70;99.90
54461;DHT22;69977;49.414;11.010;2024-03-08T03:05:24;-1.90;99.90
54461;DHT22;69977;49.414;11.010;2024-03-08T03:07:50;-1.90;99.90
54461;DHT22;69977;49.414;11.010;2024-03-08T03:10:17;-1.90;99.90
54461;DHT22;69977;49.414;11.010;2024-03-08T03:12:44;-1.90;99.90
54461;DHT22;69977;49.414;11.010;2024-03-08T03:15:13;-1.80;99.90
54461;DHT22;69977;49.414;11.010;2024-03-08T03:17:39;-1.80;99.90
54461;DHT22;69977;49.414;11.010;2024-03-08T03:20:09;-1.80;99.90
54461;DHT22;69977;49.414;11.010;2024-03-08T03:22:38;-1.90;99.90
54461;DHT22;69977;49.414;11.010;2024-03-08T03:25:04;-1.70;99.90
54461;DHT22;69977;49.414;11.010;2024-03-08T03:27:32;-1.80;99.90
54461;DHT22;69977;49.414;11.010;2024-03-08T03:29:59;-1.80;99.90
54461;DHT22;69977;49.414;11.010;2024-03-08T03:32:44;-2.00;99.90
54461;DHT22;69977;49.414;11.010;2024-03-08T03:35:13;-2.00;99.90
54461;DHT22;69977;49.414;11.010;2024-03-08T03:37:41;-2.00;99.90
54461;DHT22;69977;49.414;11.010;2024-03-08T03:40:09;-2.00;99.90
54461;DHT22;69977;49.414;11.010;2024-03-08T03:42:35;-2.00;99.90
54461;DHT22;69977;49.414;11.010;2024-03-08T03:45:05;-2.00;99.90
54461;DHT22;69977;49.414;11.010;2024-03-08T03:47:31;-2.00;99.90
54461;DHT22;69977;49.414;11.010;2024-03-08T03:49:57;-2.00;99.90
54461;DHT22;69977;49.414;11.010;2024-03-08T03:52:27;-2.10;99.90
54461;DHT22;69977;49.414;11.010;2024-03-08T03:54:53;-2.20;99.90
54461;DHT22;69977;49.414;11.010;2024-03-08T03:57:19;-2.20;99.90
54461;DHT22;69977;49.414;11.010;2024-03-08T03:59:45;-2.10;99.90
54461;DHT22;69977;49.414;11.010;2024-03-08T04:02:13;-2.00;99.90
54461;DHT22;69977;49.414;11.010;2024-03-08T04:04:39;-2.00;99.90
54461;DHT22;69977;49.414;11.010;2024-03-08T04:07:05;-2.10;99.90
54461;DHT22;69977;49.414;11.010;2024-03-08T04:09:31;-2.10;99.90
54461;DHT22;69977;49.414;11.010;2024-03-08T04:11:57;-2.20;99.90
54461;DHT22;69977;49.414;11.010;2024-03-08T04:14:23;-2.20;99.90
54461;DHT22;69977;49.414;11.010;2024-03-08T04:16:49;-2.20;99.90
54461;DHT22;69977;49.414;11.010;2024-03-08T04:19:15;-2.20;99.90
54461;DHT22;69977;49.414;11.010;2024-03-08T04:21:41;-2.30;99.90
54461;DHT22;69977;49.414;11.010;2024-03-08T04:24:07;-2.30;99.90
54461;DHT22;69977;49.414;11.010;2024-03-08T04:26:34;-2.30;99.90
54461;DHT22;69977;49.414;11.010;2024-03-08T04:29:00;-2.20;99.90
54461;DHT22;69977;49.414;11.010;2024-03-08T04:31:27;-2.30;99.90
54461;DHT22;69977;49.414;11.010;2024-03-08T04:34:15;-2.20;99.90
54461;DHT22;69977;49.414;11.010;2024-03-08T04:36:41;-2.20;99.90
54461;DHT22;69977;49.414;11.010;2024-03-08T04:39:07;-2.20;99.90
54461;DHT22;69977;49.414;11.010;2024-03-08T04:41:38;-2.20;99.90
54461;DHT22;69977;49.414;11.010;2024-03-08T04:44:04;-2.20;99.90
54461;DHT22;69977;49.414;11.010;2024-03-08T04:46:30;-2.20;99.90
54461;DHT22;69977;49.414;11.010;2024-03-08T04:48:56;-2.20;99.90
54461;DHT22;69977;49.414;11.010;2024-03-08T04:51:25;-2.10;99.90
54461;DHT22;69977;49.414;11.010;2024-03-08T04:53:51;-2.20;99.90
54461;DHT22;69977;49.414;11.010;2024-03-08T04:56:17;-2.30;99.90
54461;DHT22;69977;49.414;11.010;2024-03-08T04:58:45;-2.30;99.90
54461;DHT22;69977;49.414;11.010;2024-03-08T05:01:14;-2.30;99.90
54461;DHT22;69977;49.414;11.010;2024-03-08T05:03:41;-2.40;99.90
54461;DHT22;69977;49.414;11.010;2024-03-08T05:06:07;-2.40;99.90
54461;DHT22;69977;49.414;11.010;2024-03-08T05:08:33;-2.40;99.90
54461;DHT22;69977;49.414;11.010;2024-03-08T05:11:00;-2.40;99.90
54461;DHT22;69977;49.414;11.010;2024-03-08T05:13:30;-2.40;99.90
54461;DHT22;69977;49.414;11.010;2024-03-08T05:15:56;-2.40;99.90
54461;DHT22;69977;49.414;11.010;2024-03-08T05:18:25;-2.40;99.90
54461;DHT22;69977;49.414;11.010;2024-03-08T05:20:53;-2.40;99.90
54461;DHT22;69977;49.414;11.010;2024-03-08T05:23:19;-2.30;99.90
54461;DHT22;69977;49.414;11.010;2024-03-08T05:25:46;-2.30;99.90
54461;DHT22;69977;49.414;11.010;2024-03-08T05:28:14;-2.30;99.90
54461;DHT22;69977;49.414;11.010;2024-03-08T05:30:40;-2.30;99.90
54461;DHT22;69977;49.414;11.010;2024-03-08T05:33:06;-2.40;99.90
54461;DHT22;69977;49.414;11.010;2024-03-08T05:35:36;-2.40;99.90
54461;DHT22;69977;49.414;11.010;2024-03-08T05:38:02;-2.30;99.90
54461;DHT22;69977;49.414;11.010;2024-03-08T05:40:28;-2.40;99.90
54461;DHT22;69977;49.414;11.010;2024-03-08T05:43:01;-2.40;99.90
54461;DHT22;69977;49.414;11.010;2024-03-08T05:45:29;-2.30;99.90
54461;DHT22;69977;49.414;11.010;2024-03-08T05:47:55;-2.30;99.90
54461;DHT22;69977;49.414;11.010;2024-03-08T05:50:22;-2.20;99.90
54461;DHT22;69977;49.414;11.010;2024-03-08T05:52:48;-2.20;99.90
54461;DHT22;69977;49.414;11.010;2024-03-08T05:55:15;-2.20;99.90
54461;DHT22;69977;49.414;11.010;2024-03-08T05:57:41;-2.30;99.90
54461;DHT22;69977;49.414;11.010;2024-03-08T06:00:08;-2.30;99.90
54461;DHT22;69977;49.414;11.010;2024-03-08T06:02:39;-2.40;99.90
54461;DHT22;69977;49.414;11.010;2024-03-08T06:05:10;-2.40;99.90
54461;DHT22;69977;49.414;11.010;2024-03-08T06:07:37;-2.40;99.90
54461;DHT22;69977;49.414;11.010;2024-03-08T06:10:07;-2.30;99.90
54461;DHT22;69977;49.414;11.010;2024-03-08T06:12:35;-2.20;99.90
54461;DHT22;69977;49.414;11.010;2024-03-08T06:15:09;-2.20;99.90
54461;DHT22;69977;49.414;11.010;2024-03-08T06:17:36;-2.20;99.90
54461;DHT22;69977;49.414;11.010;2024-03-08T06:20:02;-2.00;99.90
54461;DHT22;69977;49.414;11.010;2024-03-08T06:22:29;-2.10;99.90
54461;DHT22;69977;49.414;11.010;2024-03-08T06:24:56;-1.90;99.90
54461;DHT22;69977;49.414;11.010;2024-03-08T06:27:22;-1.80;99.90
54461;DHT22;69977;49.414;11.010;2024-03-08T06:29:48;-1.70;99.90
54461;DHT22;69977;49.414;11.010;2024-03-08T06:32:14;-1.70;99.90
54461;DHT22;69977;49.414;11.010;2024-03-08T06:34:41;-1.70;99.90
54461;DHT22;69977;49.414;11.010;2024-03-08T06:37:07;-1.50;99.90
54461;DHT22;69977;49.414;11.010;2024-03-08T06:39:33;-1.40;99.90
54461;DHT22;69977;49.414;11.010;2024-03-08T06:42:01;-1.30;99.90
54461;DHT22;69977;49.414;11.010;2024-03-08T06:44:27;-1.20;99.90
54461;DHT22;69977;49.414;11.010;2024-03-08T06:46:53;-1.00;99.90
54461;DHT22;69977;49.414;11.010;2024-03-08T06:49:19;-0.80;99.90
54461;DHT22;69977;49.414;11.010;2024-03-08T06:51:45;-0.80;99.90
54461;DHT22;69977;49.414;11.010;2024-03-08T06:54:11;-0.60;99.90
54461;DHT22;69977;49.414;11.010;2024-03-08T06:56:37;-0.50;99.90
54461;DHT22;69977;49.414;11.010;2024-03-08T06:59:03;-0.50;99.90
54461;DHT22;69977;49.414;11.010;2024-03-08T07:01:29;-0.30;99.90
54461;DHT22;69977;49.414;11.010;2024-03-08T07:03:58;-0.30;99.90
54461;DHT22;69977;49.414;11.010;2024-03-08T07:06:24;-0.20;99.90
54461;DHT22;69977;49.414;11.010;2024-03-08T07:08:50;-0.20;99.90
54461;DHT22;69977;49.414;11.010;2024-03-08T07:11:16;-0.20;99.90
54461;DHT22;69977;49.414;11.010;2024-03-08T07:13:47;-0.10;99.90
54461;DHT22;69977;49.414;11.010;2024-03-08T07:16:13;0.00;99.90
54461;DHT22;69977;49.414;11.010;2024-03-08T07:18:39;0.10;99.90
54461;DHT22;69977;49.414;11.010;2024-03-08T07:21:09;0.20;99.90
54461;DHT22;69977;49.414;11.010;2024-03-08T07:23:36;0.20;99.90
54461;DHT22;69977;49.414;11.010;2024-03-08T07:26:23;0.30;99.90
54461;DHT22;69977;49.414;11.010;2024-03-08T07:28:49;0.50;99.90
54461;DHT22;69977;49.414;11.010;2024-03-08T07:31:15;0.60;99.90
54461;DHT22;69977;49.414;11.010;2024-03-08T07:33:41;0.80;99.90
54461;DHT22;69977;49.414;11.010;2024-03-08T07:36:07;0.80;99.90
54461;DHT22;69977;49.414;11.010;2024-03-08T07:38:34;1.10;99.90
54461;DHT22;69977;49.414;11.010;2024-03-08T07:41:00;1.20;99.90
54461;DHT22;69977;49.414;11.010;2024-03-08T07:43:26;1.40;99.90
54461;DHT22;69977;49.414;11.010;2024-03-08T07:45:52;1.50;99.90
54461;DHT22;69977;49.414;11.010;2024-03-08T07:48:20;1.60;99.90
54461;DHT22;69977;49.414;11.010;2024-03-08T07:50:46;1.80;99.90
54461;DHT22;69977;49.414;11.010;2024-03-08T07:53:12;1.80;99.90
54461;DHT22;69977;49.414;11.010;2024-03-08T07:55:38;1.90;99.90
54461;DHT22;69977;49.414;11.010;2024-03-08T07:58:05;2.00;99.90
54461;DHT22;69977;49.414;11.010;2024-03-08T08:00:31;2.10;99.90
54461;DHT22;69977;49.414;11.010;2024-03-08T08:02:58;2.30;99.90
54461;DHT22;69977;49.414;11.010;2024-03-08T08:05:24;2.40;99.90
54461;DHT22;69977;49.414;11.010;2024-03-08T08:07:50;2.40;99.90
54461;DHT22;69977;49.414;11.010;2024-03-08T08:10:18;2.50;99.90
54461;DHT22;69977;49.414;11.010;2024-03-08T08:12:49;2.60;99.90
54461;DHT22;69977;49.414;11.010;2024-03-08T08:15:15;2.60;99.90
54461;DHT22;69977;49.414;11.010;2024-03-08T08:17:44;2.70;99.90
54461;DHT22;69977;49.414;11.010;2024-03-08T08:20:11;2.80;99.90
54461;DHT22;69977;49.414;11.010;2024-03-08T08:22:41;2.80;99.90
54461;DHT22;69977;49.414;11.010;2024-03-08T08:25:09;3.00;99.90
54461;DHT22;69977;49.414;11.010;2024-03-08T08:27:39;3.10;99.90
54461;DHT22;69977;49.414;11.010;2024-03-08T08:30:08;3.30;99.90
54461;DHT22;69977;49.414;11.010;2024-03-08T08:32:35;3.30;99.90
54461;DHT22;69977;49.414;11.010;2024-03-08T08:35:12;3.30;99.90
54461;DHT22;69977;49.414;11.010;2024-03-08T08:37:41;3.40;99.90
54461;DHT22;69977;49.414;11.010;2024-03-08T08:40:08;3.50;99.90
54461;DHT22;69977;49.414;11.010;2024-03-08T08:42:38;3.60;99.90
54461;DHT22;69977;49.414;11.010;2024-03-08T08:45:06;3.70;99.90
54461;DHT22;69977;49.414;11.010;2024-03-08T08:47:35;3.80;99.90
54461;DHT22;69977;49.414;11.010;2024-03-08T08:50:02;3.80;99.90
54461;DHT22;69977;49.414;11.010;2024-03-08T08:52:31;3.90;99.90
54461;DHT22;69977;49.414;11.010;2024-03-08T08:54:57;4.00;99.90
54461;DHT22;69977;49.414;11.010;2024-03-08T08:57:23;4.10;99.90
54461;DHT22;69977;49.414;11.010;2024-03-08T08:59:49;4.20;99.90
54461;DHT22;69977;49.414;11.010;2024-03-08T09:02:15;4.30;99.90
54461;DHT22;69977;49.414;11.010;2024-03-08T09:04:42;4.30;99.90
54461;DHT22;69977;49.414;11.010;2024-03-08T09:07:10;4.40;99.90
54461;DHT22;69977;49.414;11.010;2024-03-08T09:09:36;4.50;99.90
54461;DHT22;69977;49.414;11.010;2024-03-08T09:12:02;4.60;99.90
54461;DHT22;69977;49.414;11.010;2024-03-08T09:14:27;4.60;99.90
54461;DHT22;69977;49.414;11.010;2024-03-08T09:16:53;4.70;99.90
54461;DHT22;69977;49.414;11.010;2024-03-08T09:19:20;4.80;99.90
54461;DHT22;69977;49.414;11.010;2024-03-08T09:21:49;4.90;99.90
54461;DHT22;69977;49.414;11.010;2024-03-08T09:24:14;5.00;99.90
54461;DHT22;69977;49.414;11.010;2024-03-08T09:26:41;5.10;99.90
54461;DHT22;69977;49.414;11.010;2024-03-08T09:29:08;5.00;99.90
54461;DHT22;69977;49.414;11.010;2024-03-08T09:31:36;5.10;99.90
54461;DHT22;69977;49.414;11.010;2024-03-08T09:34:03;5.10;99.90
54461;DHT22;69977;49.414;11.010;2024-03-08T09:36:29;5.20;99.90
54461;DHT22;69977;49.414;11.010;2024-03-08T09:38:58;5.10;99.90
54461;DHT22;69977;49.414;11.010;2024-03-08T09:41:24;5.20;99.90
54461;DHT22;69977;49.414;11.010;2024-03-08T09:43:50;5.30;99.90
54461;DHT22;69977;49.414;11.010;2024-03-08T09:46:18;5.30;99.90
54461;DHT22;69977;49.414;11.010;2024-03-08T09:48:45;5.40;99.90
54461;DHT22;69977;49.414;11.010;2024-03-08T09:51:12;5.40;99.90
54461;DHT22;69977;49.414;11.010;2024-03-08T09:53:41;5.40;99.90
54461;DHT22;69977;49.414;11.010;2024-03-08T09:56:10;5.50;99.90
54461;DHT22;69977;49.414;11.010;2024-03-08T09:58:37;5.50;99.90
54461;DHT22;69977;49.414;11.010;2024-03-08T10:01:19;5.60;99.90
54461;DHT22;69977;49.414;11.010;2024-03-08T10:03:47;5.70;99.90
54461;DHT22;69977;49.414;11.010;2024-03-08T10:06:13;5.80;99.90
54461;DHT22;69977;49.414;11.010;2024-03-08T10:08:39;5.90;99.90
54461;DHT22;69977;49.414;11.010;2024-03-08T10:11:05;5.90;99.90
54461;DHT22;69977;49.414;11.010;2024-03-08T10:13:32;6.00;99.90
54461;DHT22;69977;49.414;11.010;2024-03-08T10:15:59;6.00;99.90
54461;DHT22;69977;49.414;11.010;2024-03-08T10:18:26;6.20;99.90
54461;DHT22;69977;49.414;11.010;2024-03-08T10:21:05;6.20;99.90
54461;DHT22;69977;49.414;11.010;2024-03-08T10:23:33;6.50;99.90
54461;DHT22;69977;49.414;11.010;2024-03-08T10:26:10;6.60;99.90
54461;DHT22;69977;49.414;11.010;2024-03-08T10:28:36;6.70;99.90
54461;DHT22;69977;49.414;11.010;2024-03-08T10:31:02;6.70;99.90
54461;DHT22;69977;49.414;11.010;2024-03-08T10:33:29;6.90;99.90
54461;DHT22;69977;49.414;11.010;2024-03-08T10:35:55;6.90;99.90
54461;DHT22;69977;49.414;11.010;2024-03-08T10:38:23;7.00;99.90
54461;DHT22;69977;49.414;11.010;2024-03-08T10:40:50;7.00;99.90
54461;DHT22;69977;49.414;11.010;2024-03-08T10:43:24;6.90;99.90
54461;DHT22;69977;49.414;11.010;2024-03-08T10:46:52;6.90;99.90
54461;DHT22;69977;49.414;11.010;2024-03-08T10:48:49;7.00;99.90
54461;DHT22;69977;49.414;11.010;2024-03-08T10:51:16;7.10;99.90
54461;DHT22;69977;49.414;11.010;2024-03-08T10:53:44;7.20;99.90
54461;DHT22;69977;49.414;11.010;2024-03-08T10:56:11;7.20;99.90
54461;DHT22;69977;49.414;11.010;2024-03-08T10:58:40;7.20;99.90
54461;DHT22;69977;49.414;11.010;2024-03-08T11:01:07;7.20;99.90
54461;DHT22;69977;49.414;11.010;2024-03-08T11:03:45;7.10;99.90
54461;DHT22;69977;49.414;11.010;2024-03-08T11:06:18;7.30;99.90
54461;DHT22;69977;49.414;11.010;2024-03-08T11:08:49;7.40;99.90
54461;DHT22;69977;49.414;11.010;2024-03-08T11:11:33;7.50;99.90
54461;DHT22;69977;49.414;11.010;2024-03-08T11:14:02;7.60;99.90
54461;DHT22;69977;49.414;11.010;2024-03-08T11:21:33;8.00;99.90
54461;DHT22;69977;49.414;11.010;2024-03-08T11:24:06;8.00;99.90
54461;DHT22;69977;49.414;11.010;2024-03-08T11:26:33;7.90;99.90
54461;DHT22;69977;49.414;11.010;2024-03-08T11:32:16;8.00;99.90
54461;DHT22;69977;49.414;11.010;2024-03-08T11:34:47;8.00;99.90
54461;DHT22;69977;49.414;11.010;2024-03-08T11:37:16;8.10;99.90
54461;DHT22;69977;49.414;11.010;2024-03-08T11:39:47;8.20;99.90
54461;DHT22;69977;49.414;11.010;2024-03-08T11:42:17;8.30;99.90
54461;DHT22;69977;49.414;11.010;2024-03-08T11:44:46;8.30;99.90
54461;DHT22;69977;49.414;11.010;2024-03-08T11:47:14;8.40;99.90
54461;DHT22;69977;49.414;11.010;2024-03-08T11:49:40;8.60;99.90
54461;DHT22;69977;49.414;11.010;2024-03-08T11:52:17;8.60;99.90
54461;DHT22;69977;49.414;11.010;2024-03-08T11:54:56;8.70;99.90
54461;DHT22;69977;49.414;11.010;2024-03-08T11:57:23;8.80;99.90
54461;DHT22;69977;49.414;11.010;2024-03-08T11:59:53;8.70;99.90
54461;DHT22;69977;49.414;11.010;2024-03-08T12:02:20;9.00;99.90
54461;DHT22;69977;49.414;11.010;2024-03-08T12:04:46;9.00;99.90
54461;DHT22;69977;49.414;11.010;2024-03-08T12:07:12;9.00;99.90
54461;DHT22;69977;49.414;11.010;2024-03-08T12:09:42;9.20;99.90
54461;DHT22;69977;49.414;11.010;2024-03-08T12:12:12;9.20;99.90
54461;DHT22;69977;49.414;11.010;2024-03-08T12:14:42;9.30;99.90
54461;DHT22;69977;49.414;11.010;2024-03-08T12:17:08;9.30;99.90
54461;DHT22;69977;49.414;11.010;2024-03-08T12:19:36;9.50;99.90
54461;DHT22;69977;49.414;11.010;2024-03-08T12:22:09;9.40;99.90
54461;DHT22;69977;49.414;11.010;2024-03-08T12:24:36;9.50;99.90
54461;DHT22;69977;49.414;11.010;2024-03-08T12:27:17;9.50;99.90
54461;DHT22;69977;49.414;11.010;2024-03-08T12:29:43;9.60;99.90
54461;DHT22;69977;49.414;11.010;2024-03-08T12:32:10;9.80;99.90
54461;DHT22;69977;49.414;11.010;2024-03-08T12:34:37;9.90;99.90
54461;DHT22;69977;49.414;11.010;2024-03-08T12:37:03;9.80;99.90
54461;DHT22;69977;49.414;11.010;2024-03-08T12:39:32;9.80;99.90
54461;DHT22;69977;49.414;11.010;2024-03-08T12:41:58;9.80;99.90
54461;DHT22;69977;49.414;11.010;2024-03-08T12:44:25;9.80;99.90
54461;DHT22;69977;49.414;11.010;2024-03-08T12:46:53;9.90;99.90
54461;DHT22;69977;49.414;11.010;2024-03-08T12:49:19;10.00;99.90
54461;DHT22;69977;49.414;11.010;2024-03-08T12:51:48;10.00;99.90
54461;DHT22;69977;49.414;11.010;2024-03-08T12:54:14;10.00;99.90
54461;DHT22;69977;49.414;11.010;2024-03-08T12:56:40;10.20;99.90
54461;DHT22;69977;49.414;11.010;2024-03-08T12:59:07;10.50;99.90
54461;DHT22;69977;49.414;11.010;2024-03-08T13:01:34;10.50;99.90
54461;DHT22;69977;49.414;11.010;2024-03-08T13:04:03;10.60;99.90
54461;DHT22;69977;49.414;11.010;2024-03-08T13:06:30;10.70;99.90
54461;DHT22;69977;49.414;11.010;2024-03-08T13:08:57;10.90;99.90
54461;DHT22;69977;49.414;11.010;2024-03-08T13:11:24;11.20;99.90
54461;DHT22;69977;49.414;11.010;2024-03-08T13:13:53;11.30;99.90
54461;DHT22;69977;49.414;11.010;2024-03-08T13:16:19;11.50;99.90
54461;DHT22;69977;49.414;11.010;2024-03-08T13:18:46;11.70;99.90
54461;DHT22;69977;49.414;11.010;2024-03-08T13:21:15;11.80;99.90
54461;DHT22;69977;49.414;11.010;2024-03-08T13:23:44;11.80;99.90
54461;DHT22;69977;49.414;11.010;2024-03-08T13:26:15;11.70;99.90
54461;DHT22;69977;49.414;11.010;2024-03-08T13:28:45;11.80;99.90
54461;DHT22;69977;49.414;11.010;2024-03-08T13:31:11;11.80;99.90
54461;DHT22;69977;49.414;11.010;2024-03-08T13:33:41;11.80;99.90
54461;DHT22;69977;49.414;11.010;2024-03-08T13:36:10;11.80;99.90
54461;DHT22;69977;49.414;11.010;2024-03-08T13:38:43;11.90;99.90
54461;DHT22;69977;49.414;11.010;2024-03-08T13:41:16;11.90;99.90
54461;DHT22;69977;49.414;11.010;2024-03-08T13:43:46;12.10;99.90
54461;DHT22;69977;49.414;11.010;2024-03-08T13:46:15;12.10;99.90
54461;DHT22;69977;49.414;11.010;2024-03-08T13:48:41;12.20;99.90
54461;DHT22;69977;49.414;11.010;2024-03-08T13:51:08;12.10;99.90
54461;DHT22;69977;49.414;11.010;2024-03-08T13:53:41;12.20;99.90
54461;DHT22;69977;49.414;11.010;2024-03-08T13:56:07;12.40;99.90
54461;DHT22;69977;49.414;11.010;2024-03-08T13:58:36;12.40;99.90
54461;DHT22;69977;49.414;11.010;2024-03-08T14:01:02;12.30;99.90
54461;DHT22;69977;49.414;11.010;2024-03-08T14:03:31;12.40;99.90
54461;DHT22;69977;49.414;11.010;2024-03-08T14:05:58;12.30;99.90
54461;DHT22;69977;49.414;11.010;2024-03-08T14:08:24;12.30;99.90
54461;DHT22;69977;49.414;11.010;2024-03-08T14:10:52;12.60;99.90
54461;DHT22;69977;49.414;11.010;2024-03-08T14:13:19;12.60;99.90
54461;DHT22;69977;49.414;11.010;2024-03-08T14:15:46;12.50;99.90
54461;DHT22;69977;49.414;11.010;2024-03-08T14:18:14;12.60;99.90
54461;DHT22;69977;49.414;11.010;2024-03-08T14:20:41;12.90;99.90
54461;DHT22;69977;49.414;11.010;2024-03-08T14:23:07;12.90;99.90
54461;DHT22;69977;49.414;11.010;2024-03-08T14:25:33;12.90;99.90
54461;DHT22;69977;49.414;11.010;2024-03-08T14:27:59;13.10;99.90
54461;DHT22;69977;49.414;11.010;2024-03-08T14:30:33;13.20;99.90
54461;DHT22;69977;49.414;11.010;2024-03-08T14:33:07;13.20;99.90
54461;DHT22;69977;49.414;11.010;2024-03-08T14:35:37;13.30;99.90
54461;DHT22;69977;49.414;11.010;2024-03-08T14:38:04;13.60;99.90
54461;DHT22;69977;49.414;11.010;2024-03-08T14:40:30;13.70;99.90
54461;DHT22;69977;49.414;11.010;2024-03-08T14:42:56;13.80;99.90
54461;DHT22;69977;49.414;11.010;2024-03-08T14:45:22;13.80;99.90
54461;DHT22;69977;49.414;11.010;2024-03-08T14:47:50;13.80;99.90
54461;DHT22;69977;49.414;11.010;2024-03-08T14:50:20;14.00;99.90
54461;DHT22;69977;49.414;11.010;2024-03-08T14:52:46;14.10;99.90
54461;DHT22;69977;49.414;11.010;2024-03-08T14:55:20;14.20;99.90
54461;DHT22;69977;49.414;11.010;2024-03-08T14:57:50;14.40;99.90
54461;DHT22;69977;49.414;11.010;2024-03-08T15:00:19;14.50;99.90
54461;DHT22;69977;49.414;11.010;2024-03-08T15:03:01;14.30;99.90
54461;DHT22;69977;49.414;11.010;2024-03-08T15:05:36;14.40;99.90
54461;DHT22;69977;49.414;11.010;2024-03-08T15:08:07;14.50;99.90
54461;DHT22;69977;49.414;11.010;2024-03-08T15:10:36;14.60;99.90
54461;DHT22;69977;49.414;11.010;2024-03-08T15:13:02;14.50;99.90
54461;DHT22;69977;49.414;11.010;2024-03-08T15:15:40;14.60;99.90
54461;DHT22;69977;49.414;11.010;2024-03-08T15:18:08;14.70;99.90
54461;DHT22;69977;49.414;11.010;2024-03-08T15:20:36;14.90;99.90
54461;DHT22;69977;49.414;11.010;2024-03-08T15:23:02;14.70;99.90
54461;DHT22;69977;49.414;11.010;2024-03-08T15:25:29;14.70;99.90
54461;DHT22;69977;49.414;11.010;2024-03-08T15:27:56;14.70;99.90
54461;DHT22;69977;49.414;11.010;2024-03-08T15:30:24;14.40;99.90
54461;DHT22;69977;49.414;11.010;2024-03-08T15:32:54;14.30;99.90